sensor_id;sensor_type;location;lat;lon;timestamp;temperature;humidity
26757;DHT22;23848;49.798;10.228;2024-03-02T00:01:53;5.60;99.90
26757;DHT22;23848;49.798;10.228;2024-03-02T00:04:30;5.60;99.90
26757;DHT22;23848;49.798;10.228;2024-03-02T00:06:59;5.70;99.90
26757;DHT22;23848;49.798;10.228;2024-03-02T00:09:27;5.60;99.90
26757;DHT22;23848;49.798;10.228;2024-03-02T00:11:57;5.70;99.90
26757;DHT22;23848;49.798;10.228;2024-03-02T00:14:25;5.70;99.90
26757;DHT22;23848;49.798;10.228;2024-03-02T00:16:55;5.60;99.90
26757;DHT22;23848;49.798;10.228;2024-03-02T00:19:23;5.60;99.90
26757;DHT22;23848;49.798;10.228;2024-03-02T00:21:52;5.60;99.90
26757;DHT22;23848;49.798;10.228;2024-03-02T00:24:21;5.60;99.90
26757;DHT22;23848;49.798;10.228;2024-03-02T00:26:54;5.60;99.90
26757;DHT22;23848;49.798;10.228;2024-03-02T00:29:24;5.60;99.90
26757;DHT22;23848;49.798;10.228;2024-03-02T00:31:52;5.60;99.90
26757;DHT22;23848;49.798;10.228;2024-03-02T00:34:22;5.60;99.90
26757;DHT22;23848;49.798;10.228;2024-03-02T00:36:50;5.50;99.90
26757;DHT22;23848;49.798;10.228;2024-03-02T00:39:18;5.50;99.90
26757;DHT22;23848;49.798;10.228;2024-03-02T00:41:47;5.50;99.90
26757;DHT22;23848;49.798;10.228;2024-03-02T00:44:15;5.40;99.90
26757;DHT22;23848;49.798;10.228;2024-03-02T00:46:45;5.30;99.90
26757;DHT22;23848;49.798;10.228;2024-03-02T00:49:18;5.30;99.90
26757;DHT22;23848;49.798;10.228;2024-03-02T00:51:49;5.30;99.90
26757;DHT22;23848;49.798;10.228;2024-03-02T00:54:20;5.30;99.90
26757;DHT22;23848;49.798;10.228;2024-03-02T00:56:50;5.40;99.90
26757;DHT22;23848;49.798;10.228;2024-03-02T00:59:19;5.40;99.90
26757;DHT22;23848;49.798;10.228;2024-03-02T01:01:49;5.40;99.90
26757;DHT22;23848;49.798;10.228;2024-03-02T01:04:17;5.40;99.90
26757;DHT22;23848;49.798;10.228;2024-03-02T01:06:45;5.30;99.90
26757;DHT22;23848;49.798;10.228;2024-03-02T01:09:14;5.30;99.90
26757;DHT22;23848;49.798;10.228;2024-03-02T01:11:45;5.30;99.90
26757;DHT22;23848;49.798;10.228;2024-03-02T01:14:13;5.30;99.90
26757;DHT22;23848;49.798;10.228;2024-03-02T01:16:41;5.30;99.90
26757;DHT22;23848;49.798;10.228;2024-03-02T01:19:10;5.30;99.90
26757;DHT22;23848;49.798;10.228;2024-03-02T01:21:38;5.30;99.90
26757;DHT22;23848;49.798;10.228;2024-03-02T01:24:07;5.30;99.90
26757;DHT22;23848;49.798;10.228;2024-03-02T01:26:35;5.30;99.90
26757;DHT22;23848;49.798;10.228;2024-03-02T01:29:03;5.20;99.90
26757;DHT22;23848;49.798;10.228;2024-03-02T01:31:31;5.20;99.90
26757;DHT22;23848;49.798;10.228;2024-03-02T01:33:59;5.30;99.90
26757;DHT22;23848;49.798;10.228;2024-03-02T01:36:29;5.20;99.90
26757;DHT22;23848;49.798;10.228;2024-03-02T01:38:56;5.30;99.90
26757;DHT22;23848;49.798;10.228;2024-03-02T01:41:24;5.30;99.90
26757;DHT22;23848;49.798;10.228;2024-03-02T01:43:52;5.40;99.90
26757;DHT22;23848;49.798;10.228;2024-03-02T01:46:21;5.40;99.90
26757;DHT22;23848;49.798;10.228;2024-03-02T01:48:50;5.40;99.90
26757;DHT22;23848;49.798;10.228;2024-03-02T01:51:18;5.40;99.90
26757;DHT22;23848;49.798;10.228;2024-03-02T01:53:47;5.40;99.90
26757;DHT22;23848;49.798;10.228;2024-03-02T01:56:16;5.30;99.90
26757;DHT22;23848;49.798;10.228;2024-03-02T01:58:44;5.20;99.90
26757;DHT22;23848;49.798;10.228;2024-03-02T02:01:12;5.20;99.90
26757;DHT22;23848;49.798;10.228;2024-03-02T02:03:40;5.20;99.90
26757;DHT22;23848;49.798;10.228;2024-03-02T02:06:08;5.20;99.90
26757;DHT22;23848;49.798;10.228;2024-03-02T02:08:37;5.10;99.90
26757;DHT22;23848;49.798;10.228;2024-03-02T02:11:06;5.10;99.90
26757;DHT22;23848;49.798;10.228;2024-03-02T02:13:34;5.10;99.90
26757;DHT22;23848;49.798;10.228;2024-03-02T02:16:09;5.00;99.90
26757;DHT22;23848;49.798;10.228;2024-03-02T02:18:37;5.00;99.90
26757;DHT22;23848;49.798;10.228;2024-03-02T02:21:05;4.90;99.90
26757;DHT22;23848;49.798;10.228;2024-03-02T02:23:35;4.90;99.90
26757;DHT22;23848;49.798;10.228;2024-03-02T02:26:03;4.90;99.90
26757;DHT22;23848;49.798;10.228;2024-03-02T02:28:31;4.90;99.90
26757;DHT22;23848;49.798;10.228;2024-03-02T02:30:59;4.90;99.90
26757;DHT22;23848;49.798;10.228;2024-03-02T02:33:28;4.90;99.90
26757;DHT22;23848;49.798;10.228;2024-03-02T02:35:56;4.90;99.90
26757;DHT22;23848;49.798;10.228;2024-03-02T02:38:24;4.90;99.90
26757;DHT22;23848;49.798;10.228;2024-03-02T02:40:54;4.90;99.90
26757;DHT22;23848;49.798;10.228;2024-03-02T02:43:22;4.90;99.90
26757;DHT22;23848;49.798;10.228;2024-03-02T02:45:50;4.80;99.90
26757;DHT22;23848;49.798;10.228;2024-03-02T02:48:19;4.80;99.90
26757;DHT22;23848;49.798;10.228;2024-03-02T02:50:47;4.80;99.90
26757;DHT22;23848;49.798;10.228;2024-03-02T02:53:15;4.80;99.90
26757;DHT22;23848;49.798;10.228;2024-03-02T02:55:43;4.80;99.90
26757;DHT22;23848;49.798;10.228;2024-03-02T02:58:12;4.80;99.90
26757;DHT22;23848;49.798;10.228;2024-03-02T03:00:41;4.80;99.90
26757;DHT22;23848;49.798;10.228;2024-03-02T03:03:09;4.80;99.90
26757;DHT22;23848;49.798;10.228;2024-03-02T03:05:38;4.80;99.90
26757;DHT22;23848;49.798;10.228;2024-03-02T03:08:06;4.80;99.90
26757;DHT22;23848;49.798;10.228;2024-03-02T03:10:34;4.80;99.90
26757;DHT22;23848;49.798;10.228;2024-03-02T03:13:02;4.90;99.90
26757;DHT22;23848;49.798;10.228;2024-03-02T03:15:32;4.90;99.90
26757;DHT22;23848;49.798;10.228;2024-03-02T03:18:00;4.90;99.90
26757;DHT22;23848;49.798;10.228;2024-03-02T03:20:28;4.80;99.90
26757;DHT22;23848;49.798;10.228;2024-03-02T03:22:56;4.90;99.90
26757;DHT22;23848;49.798;10.228;2024-03-02T03:25:24;4.90;99.90
26757;DHT22;23848;49.798;10.228;2024-03-02T03:27:52;4.90;99.90
26757;DHT22;23848;49.798;10.228;2024-03-02T03:30:21;4.90;99.90
26757;DHT22;23848;49.798;10.228;2024-03-02T03:32:50;4.90;99.90
26757;DHT22;23848;49.798;10.228;2024-03-02T03:35:18;4.90;99.90
26757;DHT22;23848;49.798;10.228;2024-03-02T03:37:46;4.90;99.90
26757;DHT22;23848;49.798;10.228;2024-03-02T03:40:15;4.90;99.90
26757;DHT22;23848;49.798;10.228;2024-03-02T03:42:47;4.90;99.90
26757;DHT22;23848;49.798;10.228;2024-03-02T03:45:15;4.90;99.90
26757;DHT22;23848;49.798;10.228;2024-03-02T03:47:44;4.90;99.90
26757;DHT22;23848;49.798;10.228;2024-03-02T03:50:14;4.90;99.90
26757;DHT22;23848;49.798;10.228;2024-03-02T03:52:42;4.80;99.90
26757;DHT22;23848;49.798;10.228;2024-03-02T03:55:10;4.80;99.90
26757;DHT22;23848;49.798;10.228;2024-03-02T03:57:38;4.80;99.90
26757;DHT22;23848;49.798;10.228;2024-03-02T04:00:07;4.80;99.90
26757;DHT22;23848;49.798;10.228;2024-03-02T04:02:37;4.80;99.90
26757;DHT22;23848;49.798;10.228;2024-03-02T04:05:05;4.80;99.90
26757;DHT22;23848;49.798;10.228;2024-03-02T04:07:39;4.80;99.90
26757;DHT22;23848;49.798;10.228;2024-03-02T04:10:08;4.70;99.90
26757;DHT22;23848;49.798;10.228;2024-03-02T04:12:37;4.60;99.90
26757;DHT22;23848;49.798;10.228;2024-03-02T04:15:05;4.60;99.90
26757;DHT22;23848;49.798;10.228;2024-03-02T04:17:34;4.50;99.90
26757;DHT22;23848;49.798;10.228;2024-03-02T04:20:03;4.40;99.90
26757;DHT22;23848;49.798;10.228;2024-03-02T04:22:33;4.40;99.90
26757;DHT22;23848;49.798;10.228;2024-03-02T04:25:04;4.40;99.90
26757;DHT22;23848;49.798;10.228;2024-03-02T04:27:34;4.30;99.90
26757;DHT22;23848;49.798;10.228;2024-03-02T04:30:03;4.30;99.90
26757;DHT22;23848;49.798;10.228;2024-03-02T04:32:32;4.30;99.90
26757;DHT22;23848;49.798;10.228;2024-03-02T04:35:01;4.30;99.90
26757;DHT22;23848;49.798;10.228;2024-03-02T04:37:29;4.30;99.90
26757;DHT22;23848;49.798;10.228;2024-03-02T04:39:57;4.30;99.90
26757;DHT22;23848;49.798;10.228;2024-03-02T04:42:27;4.30;99.90
26757;DHT22;23848;49.798;10.228;2024-03-02T04:44:55;4.30;99.90
26757;DHT22;23848;49.798;10.228;2024-03-02T04:47:23;4.30;99.90
26757;DHT22;23848;49.798;10.228;2024-03-02T04:49:51;4.20;99.90
26757;DHT22;23848;49.798;10.228;2024-03-02T04:52:19;4.20;99.90
26757;DHT22;23848;49.798;10.228;2024-03-02T04:54:47;4.10;99.90
26757;DHT22;23848;49.798;10.228;2024-03-02T04:57:34;4.10;99.90
26757;DHT22;23848;49.798;10.228;2024-03-02T05:00:03;4.00;99.90
26757;DHT22;23848;49.798;10.228;2024-03-02T05:02:34;4.00;99.90
26757;DHT22;23848;49.798;10.228;2024-03-02T05:05:02;3.90;99.90
26757;DHT22;23848;49.798;10.228;2024-03-02T05:07:30;3.90;99.90
26757;DHT22;23848;49.798;10.228;2024-03-02T05:09:58;3.70;99.90
26757;DHT22;23848;49.798;10.228;2024-03-02T05:12:26;3.60;99.90
26757;DHT22;23848;49.798;10.228;2024-03-02T05:15:09;3.60;99.90
26757;DHT22;23848;49.798;10.228;2024-03-02T05:17:38;3.50;99.90
26757;DHT22;23848;49.798;10.228;2024-03-02T05:20:07;3.50;99.90
26757;DHT22;23848;49.798;10.228;2024-03-02T05:22:35;3.50;99.90
26757;DHT22;23848;49.798;10.228;2024-03-02T05:27:33;3.50;99.90
26757;DHT22;23848;49.798;10.228;2024-03-02T05:30:01;3.40;99.90
26757;DHT22;23848;49.798;10.228;2024-03-02T05:32:31;3.40;99.90
26757;DHT22;23848;49.798;10.228;2024-03-02T05:34:59;3.30;99.90
26757;DHT22;23848;49.798;10.228;2024-03-02T05:37:27;3.20;99.90
26757;DHT22;23848;49.798;10.228;2024-03-02T05:39:55;3.20;99.90
26757;DHT22;23848;49.798;10.228;2024-03-02T05:42:24;3.10;99.90
26757;DHT22;23848;49.798;10.228;2024-03-02T05:44:52;3.10;99.90
26757;DHT22;23848;49.798;10.228;2024-03-02T05:47:20;3.10;99.90
26757;DHT22;23848;49.798;10.228;2024-03-02T05:49:49;3.10;99.90
26757;DHT22;23848;49.798;10.228;2024-03-02T05:52:17;3.10;99.90
26757;DHT22;23848;49.798;10.228;2024-03-02T05:54:45;3.10;99.90
26757;DHT22;23848;49.798;10.228;2024-03-02T05:57:13;3.00;99.90
26757;DHT22;23848;49.798;10.228;2024-03-02T05:59:58;3.00;99.90
26757;DHT22;23848;49.798;10.228;2024-03-02T06:02:26;3.00;99.90
26757;DHT22;23848;49.798;10.228;2024-03-02T06:07:27;3.10;99.90
26757;DHT22;23848;49.798;10.228;2024-03-02T06:09:55;3.00;99.90
26757;DHT22;23848;49.798;10.228;2024-03-02T06:12:23;3.00;99.90
26757;DHT22;23848;49.798;10.228;2024-03-02T06:14:51;3.00;99.90
26757;DHT22;23848;49.798;10.228;2024-03-02T06:17:19;2.90;99.90
26757;DHT22;23848;49.798;10.228;2024-03-02T06:19:47;2.90;99.90
26757;DHT22;23848;49.798;10.228;2024-03-02T06:22:17;2.90;99.90
26757;DHT22;23848;49.798;10.228;2024-03-02T06:24:46;3.00;99.90
26757;DHT22;23848;49.798;10.228;2024-03-02T06:27:14;2.90;99.90
26757;DHT22;23848;49.798;10.228;2024-03-02T06:29:42;2.90;99.90
26757;DHT22;23848;49.798;10.228;2024-03-02T06:32:10;2.90;99.90
26757;DHT22;23848;49.798;10.228;2024-03-02T06:34:38;3.00;99.90
26757;DHT22;23848;49.798;10.228;2024-03-02T06:37:06;3.00;99.90
26757;DHT22;23848;49.798;10.228;2024-03-02T06:39:35;3.00;99.90
26757;DHT22;23848;49.798;10.228;2024-03-02T06:42:04;3.00;99.90
26757;DHT22;23848;49.798;10.228;2024-03-02T06:44:32;3.00;99.90
26757;DHT22;23848;49.798;10.228;2024-03-02T06:47:00;3.00;99.90
26757;DHT22;23848;49.798;10.228;2024-03-02T06:49:28;3.00;99.90
26757;DHT22;23848;49.798;10.228;2024-03-02T06:51:56;2.90;99.90
26757;DHT22;23848;49.798;10.228;2024-03-02T06:54:24;2.80;99.90
26757;DHT22;23848;49.798;10.228;2024-03-02T06:56:54;2.90;99.90
26757;DHT22;23848;49.798;10.228;2024-03-02T06:59:22;3.00;99.90
26757;DHT22;23848;49.798;10.228;2024-03-02T07:01:51;3.00;99.90
26757;DHT22;23848;49.798;10.228;2024-03-02T07:04:19;3.10;99.90
26757;DHT22;23848;49.798;10.228;2024-03-02T07:06:47;3.10;99.90
26757;DHT22;23848;49.798;10.228;2024-03-02T07:09:15;3.10;99.90
26757;DHT22;23848;49.798;10.228;2024-03-02T07:11:43;3.10;99.90
26757;DHT22;23848;49.798;10.228;2024-03-02T07:14:15;3.10;99.90
26757;DHT22;23848;49.798;10.228;2024-03-02T07:16:44;3.20;99.90
26757;DHT22;23848;49.798;10.228;2024-03-02T07:19:11;3.30;99.90
26757;DHT22;23848;49.798;10.228;2024-03-02T07:21:39;3.40;99.90
26757;DHT22;23848;49.798;10.228;2024-03-02T07:24:08;3.50;99.90
26757;DHT22;23848;49.798;10.228;2024-03-02T07:26:40;3.60;99.90
26757;DHT22;23848;49.798;10.228;2024-03-02T07:29:15;3.70;99.90
26757;DHT22;23848;49.798;10.228;2024-03-02T07:31:43;3.80;99.90
26757;DHT22;23848;49.798;10.228;2024-03-02T07:34:11;3.90;99.90
26757;DHT22;23848;49.798;10.228;2024-03-02T07:36:39;4.00;99.90
26757;DHT22;23848;49.798;10.228;2024-03-02T07:39:10;4.10;99.90
26757;DHT22;23848;49.798;10.228;2024-03-02T07:41:38;4.20;99.90
26757;DHT22;23848;49.798;10.228;2024-03-02T07:44:07;4.20;99.90
26757;DHT22;23848;49.798;10.228;2024-03-02T07:46:40;4.30;99.90
26757;DHT22;23848;49.798;10.228;2024-03-02T07:49:11;4.50;99.90
26757;DHT22;23848;49.798;10.228;2024-03-02T07:51:42;4.60;99.90
26757;DHT22;23848;49.798;10.228;2024-03-02T08:09:02;5.90;99.90
26757;DHT22;23848;49.798;10.228;2024-03-02T08:11:38;5.80;99.90
26757;DHT22;23848;49.798;10.228;2024-03-02T08:14:07;5.80;99.90
26757;DHT22;23848;49.798;10.228;2024-03-02T08:16:35;5.80;99.90
26757;DHT22;23848;49.798;10.228;2024-03-02T08:19:07;5.90;99.90
26757;DHT22;23848;49.798;10.228;2024-03-02T08:21:38;6.00;99.90
26757;DHT22;23848;49.798;10.228;2024-03-02T08:24:08;6.00;99.90
26757;DHT22;23848;49.798;10.228;2024-03-02T08:26:37;6.10;99.90
26757;DHT22;23848;49.798;10.228;2024-03-02T08:29:05;6.20;99.90
26757;DHT22;23848;49.798;10.228;2024-03-02T08:31:59;6.30;99.90
26757;DHT22;23848;49.798;10.228;2024-03-02T08:34:29;6.40;99.90
26757;DHT22;23848;49.798;10.228;2024-03-02T08:37:00;6.40;99.90
26757;DHT22;23848;49.798;10.228;2024-03-02T08:39:29;6.60;99.90
26757;DHT22;23848;49.798;10.228;2024-03-02T08:42:01;6.70;99.90
26757;DHT22;23848;49.798;10.228;2024-03-02T08:44:31;6.90;99.90
26757;DHT22;23848;49.798;10.228;2024-03-02T08:47:00;7.00;99.90
26757;DHT22;23848;49.798;10.228;2024-03-02T08:49:33;7.20;99.90
26757;DHT22;23848;49.798;10.228;2024-03-02T08:52:01;7.40;99.90
26757;DHT22;23848;49.798;10.228;2024-03-02T08:54:37;7.50;99.90
26757;DHT22;23848;49.798;10.228;2024-03-02T08:57:11;7.60;99.90
26757;DHT22;23848;49.798;10.228;2024-03-02T08:59:48;7.70;99.90
26757;DHT22;23848;49.798;10.228;2024-03-02T09:02:21;7.90;99.90
26757;DHT22;23848;49.798;10.228;2024-03-02T09:04:53;8.10;99.90
26757;DHT22;23848;49.798;10.228;2024-03-02T09:07:32;8.20;99.90
26757;DHT22;23848;49.798;10.228;2024-03-02T09:10:03;8.40;99.90
26757;DHT22;23848;49.798;10.228;2024-03-02T09:12:34;8.50;99.90
26757;DHT22;23848;49.798;10.228;2024-03-02T09:15:10;8.70;99.90
26757;DHT22;23848;49.798;10.228;2024-03-02T09:17:39;8.80;99.90
26757;DHT22;23848;49.798;10.228;2024-03-02T09:20:14;8.90;99.90
26757;DHT22;23848;49.798;10.228;2024-03-02T09:22:46;9.10;99.90
26757;DHT22;23848;49.798;10.228;2024-03-02T09:25:17;9.10;99.90
26757;DHT22;23848;49.798;10.228;2024-03-02T09:27:55;9.20;99.90
26757;DHT22;23848;49.798;10.228;2024-03-02T09:30:29;9.30;99.90
26757;DHT22;23848;49.798;10.228;2024-03-02T09:32:58;9.40;99.90
26757;DHT22;23848;49.798;10.228;2024-03-02T09:35:33;9.50;99.90
26757;DHT22;23848;49.798;10.228;2024-03-02T09:38:04;9.60;99.90
26757;DHT22;23848;49.798;10.228;2024-03-02T09:40:34;9.70;99.90
26757;DHT22;23848;49.798;10.228;2024-03-02T09:43:24;9.80;99.90
26757;DHT22;23848;49.798;10.228;2024-03-02T09:45:59;9.90;99.90
26757;DHT22;23848;49.798;10.228;2024-03-02T09:48:33;10.10;99.90
26757;DHT22;23848;49.798;10.228;2024-03-02T09:51:19;10.20;99.90
26757;DHT22;23848;49.798;10.228;2024-03-02T09:53:53;10.30;99.90
26757;DHT22;23848;49.798;10.228;2024-03-02T09:56:44;10.40;99.90
26757;DHT22;23848;49.798;10.228;2024-03-02T09:59:12;10.50;99.90
26757;DHT22;23848;49.798;10.228;2024-03-02T10:02:03;10.50;99.90
26757;DHT22;23848;49.798;10.228;2024-03-02T10:05:00;10.60;99.90
26757;DHT22;23848;49.798;10.228;2024-03-02T10:30:51;11.60;99.90
26757;DHT22;23848;49.798;10.228;2024-03-02T10:33:34;11.70;99.90
26757;DHT22;23848;49.798;10.228;2024-03-02T10:36:04;11.80;99.90
26757;DHT22;23848;49.798;10.228;2024-03-02T10:38:54;11.90;99.90
26757;DHT22;23848;49.798;10.228;2024-03-02T10:41:34;12.00;99.90
26757;DHT22;23848;49.798;10.228;2024-03-02T10:44:17;11.90;99.90
26757;DHT22;23848;49.798;10.228;2024-03-02T10:47:13;11.80;99.90
26757;DHT22;23848;49.798;10.228;2024-03-02T10:49:51;11.90;99.90
26757;DHT22;23848;49.798;10.228;2024-03-02T10:52:48;11.90;99.90
26757;DHT22;23848;49.798;10.228;2024-03-02T10:55:31;12.00;99.90
26757;DHT22;23848;49.798;10.228;2024-03-02T10:58:09;12.10;99.90
26757;DHT22;23848;49.798;10.228;2024-03-02T11:01:00;12.00;99.90
26757;DHT22;23848;49.798;10.228;2024-03-02T11:03:44;12.20;99.90
26757;DHT22;23848;49.798;10.228;2024-03-02T11:06:30;12.30;99.90
26757;DHT22;23848;49.798;10.228;2024-03-02T11:09:21;12.20;99.90
26757;DHT22;23848;49.798;10.228;2024-03-02T11:12:28;12.40;99.90
26757;DHT22;23848;49.798;10.228;2024-03-02T11:15:43;12.70;99.90
26757;DHT22;23848;49.798;10.228;2024-03-02T11:21:55;12.90;99.90
26757;DHT22;23848;49.798;10.228;2024-03-02T11:25:08;13.10;99.90
26757;DHT22;23848;49.798;10.228;2024-03-02T12:23:27;14.10;99.90
26757;DHT22;23848;49.798;10.228;2024-03-02T12:26:56;14.10;99.90
26757;DHT22;23848;49.798;10.228;2024-03-02T12:45:49;14.30;99.90
26757;DHT22;23848;49.798;10.228;2024-03-02T12:51:25;14.40;99.90
26757;DHT22;23848;49.798;10.228;2024-03-02T13:00:44;14.50;99.90
26757;DHT22;23848;49.798;10.228;2024-03-02T13:10:22;14.70;99.90
26757;DHT22;23848;49.798;10.228;2024-03-02T13:17:01;14.80;99.90
26757;DHT22;23848;49.798;10.228;2024-03-02T13:20:11;14.80;99.90
26757;DHT22;23848;49.798;10.228;2024-03-02T13:23:39;14.90;99.90
26757;DHT22;23848;49.798;10.228;2024-03-02T13:30:21;14.90;99.90
26757;DHT22;23848;49.798;10.228;2024-03-02T13:33:16;14.90;99.90
26757;DHT22;23848;49.798;10.228;2024-03-02T13:36:32;15.10;99.90
26757;DHT22;23848;49.798;10.228;2024-03-02T13:39:09;15.40;99.90
26757;DHT22;23848;49.798;10.228;2024-03-02T13:41:56;15.50;99.90
26757;DHT22;23848;49.798;10.228;2024-03-02T13:44:45;15.30;99.90
26757;DHT22;23848;49.798;10.228;2024-03-02T13:47:24;15.50;99.90
26757;DHT22;23848;49.798;10.228;2024-03-02T13:50:02;15.60;99.90
26757;DHT22;23848;49.798;10.228;2024-03-02T13:52:48;15.50;99.90
26757;DHT22;23848;49.798;10.228;2024-03-02T13:55:30;15.30;99.90
26757;DHT22;23848;49.798;10.228;2024-03-02T13:58:05;15.30;99.90
26757;DHT22;23848;49.798;10.228;2024-03-02T14:00:44;15.40;99.90
26757;DHT22;23848;49.798;10.228;2024-03-02T14:03:29;15.40;99.90
26757;DHT22;23848;49.798;10.228;2024-03-02T14:06:10;15.30;99.90
26757;DHT22;23848;49.798;10.228;2024-03-02T14:08:57;15.20;99.90
26757;DHT22;23848;49.798;10.228;2024-03-02T14:11:30;15.40;99.90
26757;DHT22;23848;49.798;10.228;2024-03-02T14:14:13;15.50;99.90
26757;DHT22;23848;49.798;10.228;2024-03-02T14:17:15;15.60;99.90
26757;DHT22;23848;49.798;10.228;2024-03-02T14:34:53;15.30;99.90
26757;DHT22;23848;49.798;10.228;2024-03-02T14:37:56;15.10;99.90
26757;DHT22;23848;49.798;10.228;2024-03-02T14:47:58;15.60;99.90
26757;DHT22;23848;49.798;10.228;2024-03-02T14:51:01;15.60;99.90
26757;DHT22;23848;49.798;10.228;2024-03-02T14:54:20;15.50;99.90
26757;DHT22;23848;49.798;10.228;2024-03-02T15:06:30;15.30;99.90
26757;DHT22;23848;49.798;10.228;2024-03-02T15:09:36;15.30;99.90
26757;DHT22;23848;49.798;10.228;2024-03-02T15:12:11;15.10;99.90
26757;DHT22;23848;49.798;10.228;2024-03-02T15:14:44;15.10;99.90
26757;DHT22;23848;49.798;10.228;2024-03-02T15:17:21;15.20;99.90
26757;DHT22;23848;49.798;10.228;2024-03-02T15:20:33;15.20;99.90
26757;DHT22;23848;49.798;10.228;2024-03-02T15:26:31;15.30;99.90
26757;DHT22;23848;49.798;10.228;2024-03-02T15:30:02;15.40;99.90
26757;DHT22;23848;49.798;10.228;2024-03-02T15:33:30;15.30;99.90
26757;DHT22;23848;49.798;10.228;2024-03-02T15:45:12;14.80;99.90
26757;DHT22;23848;49.798;10.228;2024-03-02T15:47:50;14.60;99.90
26757;DHT22;23848;49.798;10.228;2024-03-02T15:50:22;14.50;99.90
26757;DHT22;23848;49.798;10.228;2024-03-02T15:52:52;14.50;99.90
26757;DHT22;23848;49.798;10.228;2024-03-02T15:55:41;14.60;99.90
26757;DHT22;23848;49.798;10.228;2024-03-02T15:58:12;14.60;99.90
26757;DHT22;23848;49.798;10.228;2024-03-02T16:00:47;14.50;99.90
26757;DHT22;23848;49.798;10.228;2024-03-02T16:03:29;14.50;99.90
26757;DHT22;23848;49.798;10.228;2024-03-02T16:06:09;14.50;99.90
26757;DHT22;23848;49.798;10.228;2024-03-02T16:08:45;14.40;99.90
26757;DHT22;23848;49.798;10.228;2024-03-02T16:11:19;14.40;99.90
26757;DHT22;23848;49.798;10.228;2024-03-02T16:14:18;14.40;99.90
26757;DHT22;23848;49.798;10.228;2024-03-02T16:21:31;14.10;99.90
26757;DHT22;23848;49.798;10.228;2024-03-02T17:02:39;12.30;99.90
26757;DHT22;23848;49.798;10.228;2024-03-02T17:05:26;12.10;99.90
26757;DHT22;23848;49.798;10.228;2024-03-02T17:08:27;12.20;99.90
26757;DHT22;23848;49.798;10.228;2024-03-02T17:14:31;12.10;99.90
26757;DHT22;23848;49.798;10.228;2024-03-02T17:17:10;12.00;99.90
26757;DHT22;23848;49.798;10.228;2024-03-02T17:20:11;11.80;99.90
26757;DHT22;23848;49.798;10.228;2024-03-02T17:23:09;11.60;99.90
26757;DHT22;23848;49.798;10.228;2024-03-02T17:25:58;11.50;99.90
26757;DHT22;23848;49.798;10.228;2024-03-02T17:28:56;11.40;99.90
26757;DHT22;23848;49.798;10.228;2024-03-02T17:31:53;11.30;99.90
26757;DHT22;23848;49.798;10.228;2024-03-02T17:34:31;11.20;99.90
26757;DHT22;23848;49.798;10.228;2024-03-02T17:37:02;11.20;99.90
26757;DHT22;23848;49.798;10.228;2024-03-02T17:39:30;11.20;99.90
26757;DHT22;23848;49.798;10.228;2024-03-02T17:41:58;11.10;99.90
26757;DHT22;23848;49.798;10.228;2024-03-02T17:44:27;11.00;99.90
26757;DHT22;23848;49.798;10.228;2024-03-02T17:46:56;10.90;99.90
26757;DHT22;23848;49.798;10.228;2024-03-02T17:49:25;10.90;99.90
26757;DHT22;23848;49.798;10.228;2024-03-02T17:52:17;10.80;99.90
26757;DHT22;23848;49.798;10.228;2024-03-02T17:54:47;10.70;99.90
26757;DHT22;23848;49.798;10.228;2024-03-02T17:57:17;10.70;99.90
26757;DHT22;23848;49.798;10.228;2024-03-02T17:59:50;10.60;99.90
26757;DHT22;23848;49.798;10.228;2024-03-02T18:02:18;10.50;99.90
26757;DHT22;23848;49.798;10.228;2024-03-02T18:04:49;10.40;99.90
26757;DHT22;23848;49.798;10.228;2024-03-02T18:07:23;10.30;99.90
26757;DHT22;23848;49.798;10.228;2024-03-02T18:09:54;10.30;99.90
26757;DHT22;23848;49.798;10.228;2024-03-02T18:12:27;10.20;99.90
26757;DHT22;23848;49.798;10.228;2024-03-02T18:15:01;10.10;99.90
26757;DHT22;23848;49.798;10.228;2024-03-02T18:17:29;10.10;99.90
26757;DHT22;23848;49.798;10.228;2024-03-02T18:19:57;10.00;99.90
26757;DHT22;23848;49.798;10.228;2024-03-02T18:22:30;10.00;99.90
26757;DHT22;23848;49.798;10.228;2024-03-02T18:25:03;9.90;99.90
26757;DHT22;23848;49.798;10.228;2024-03-02T18:27:32;9.80;99.90
26757;DHT22;23848;49.798;10.228;2024-03-02T18:30:04;9.70;99.90
26757;DHT22;23848;49.798;10.228;2024-03-02T18:32:37;9.70;99.90
26757;DHT22;23848;49.798;10.228;2024-03-02T18:35:06;9.60;99.90
26757;DHT22;23848;49.798;10.228;2024-03-02T18:37:42;9.60;99.90
26757;DHT22;23848;49.798;10.228;2024-03-02T18:40:15;9.50;99.90
26757;DHT22;23848;49.798;10.228;2024-03-02T18:42:44;9.50;99.90
26757;DHT22;23848;49.798;10.228;2024-03-02T18:45:17;9.40;99.90
26757;DHT22;23848;49.798;10.228;2024-03-02T18:47:45;9.40;99.90
26757;DHT22;23848;49.798;10.228;2024-03-02T18:50:13;9.40;99.90
26757;DHT22;23848;49.798;10.228;2024-03-02T18:52:44;9.30;99.90
26757;DHT22;23848;49.798;10.228;2024-03-02T18:55:13;9.30;99.90
26757;DHT22;23848;49.798;10.228;2024-03-02T18:57:42;9.30;99.90
26757;DHT22;23848;49.798;10.228;2024-03-02T19:00:14;9.30;99.90
26757;DHT22;23848;49.798;10.228;2024-03-02T19:02:42;9.20;99.90
26757;DHT22;23848;49.798;10.228;2024-03-02T19:05:15;9.20;99.90
26757;DHT22;23848;49.798;10.228;2024-03-02T19:07:44;9.30;99.90
26757;DHT22;23848;49.798;10.228;2024-03-02T19:10:13;9.30;99.90
26757;DHT22;23848;49.798;10.228;2024-03-02T19:12:41;9.20;99.90
26757;DHT22;23848;49.798;10.228;2024-03-02T19:15:14;9.30;99.90
26757;DHT22;23848;49.798;10.228;2024-03-02T19:17:45;9.30;99.90
26757;DHT22;23848;49.798;10.228;2024-03-02T19:20:14;9.20;99.90
26757;DHT22;23848;49.798;10.228;2024-03-02T19:22:49;9.20;99.90
26757;DHT22;23848;49.798;10.228;2024-03-02T19:25:51;9.10;99.90
26757;DHT22;23848;49.798;10.228;2024-03-02T19:28:19;9.00;99.90
26757;DHT22;23848;49.798;10.228;2024-03-02T19:30:47;9.00;99.90
26757;DHT22;23848;49.798;10.228;2024-03-02T19:33:16;8.80;99.90
26757;DHT22;23848;49.798;10.228;2024-03-02T19:35:47;8.80;99.90
26757;DHT22;23848;49.798;10.228;2024-03-02T19:38:17;8.80;99.90
26757;DHT22;23848;49.798;10.228;2024-03-02T19:40:47;8.80;99.90
26757;DHT22;23848;49.798;10.228;2024-03-02T19:43:15;8.70;99.90
26757;DHT22;23848;49.798;10.228;2024-03-02T19:45:44;8.80;99.90
26757;DHT22;23848;49.798;10.228;2024-03-02T19:48:13;8.70;99.90
26757;DHT22;23848;49.798;10.228;2024-03-02T19:50:44;8.70;99.90
26757;DHT22;23848;49.798;10.228;2024-03-02T19:53:12;8.70;99.90
26757;DHT22;23848;49.798;10.228;2024-03-02T19:55:42;8.70;99.90
26757;DHT22;23848;49.798;10.228;2024-03-02T19:58:11;8.70;99.90
26757;DHT22;23848;49.798;10.228;2024-03-02T20:00:39;8.60;99.90
26757;DHT22;23848;49.798;10.228;2024-03-02T20:03:08;8.50;99.90
26757;DHT22;23848;49.798;10.228;2024-03-02T20:05:36;8.50;99.90